sensor_id;sensor_type;location;lat;lon;timestamp;P1;durP1;ratioP1;P2;durP2;ratioP2
54408;SDS011;40315;48.620;9.828;2023-04-29T00:01:28;4.10;;;2.58;;
54408;SDS011;40315;48.620;9.828;2023-04-29T00:03:55;2.80;;;2.60;;
54408;SDS011;40315;48.620;9.828;2023-04-29T00:06:22;3.90;;;2.63;;
54408;SDS011;40315;48.620;9.828;2023-04-29T00:08:52;3.40;;;2.60;;
54408;SDS011;40315;48.620;9.828;2023-04-29T00:11:19;3.42;;;3.13;;
54408;SDS011;40315;48.620;9.828;2023-04-29T00:13:47;3.40;;;3.08;;
54408;SDS011;40315;48.620;9.828;2023-04-29T00:16:14;3.83;;;3.30;;
54408;SDS011;40315;48.620;9.828;2023-04-29T00:18:41;4.50;;;3.38;;
54408;SDS011;40315;48.620;9.828;2023-04-29T00:21:08;4.20;;;2.92;;
54408;SDS011;40315;48.620;9.828;2023-04-29T00:23:38;4.63;;;3.55;;
54408;SDS011;40315;48.620;9.828;2023-04-29T00:26:05;4.65;;;3.03;;
54408;SDS011;40315;48.620;9.828;2023-04-29T00:28:34;3.45;;;2.95;;
54408;SDS011;40315;48.620;9.828;2023-04-29T00:31:03;4.50;;;3.45;;
54408;SDS011;40315;48.620;9.828;2023-04-29T00:33:30;4.07;;;2.80;;
54408;SDS011;40315;48.620;9.828;2023-04-29T00:35:57;3.78;;;3.00;;
54408;SDS011;40315;48.620;9.828;2023-04-29T00:38:26;2.95;;;2.65;;
54408;SDS011;40315;48.620;9.828;2023-04-29T00:40:53;3.47;;;3.17;;
54408;SDS011;40315;48.620;9.828;2023-04-29T00:43:21;5.05;;;3.10;;
54408;SDS011;40315;48.620;9.828;2023-04-29T00:45:48;4.07;;;2.90;;
54408;SDS011;40315;48.620;9.828;2023-04-29T00:48:16;5.15;;;3.00;;
54408;SDS011;40315;48.620;9.828;2023-04-29T00:50:43;5.82;;;2.85;;
54408;SDS011;40315;48.620;9.828;2023-04-29T00:53:11;3.60;;;2.90;;
54408;SDS011;40315;48.620;9.828;2023-04-29T00:55:39;3.45;;;2.90;;
54408;SDS011;40315;48.620;9.828;2023-04-29T00:58:09;3.17;;;2.88;;
54408;SDS011;40315;48.620;9.828;2023-04-29T01:03:12;3.33;;;3.00;;
54408;SDS011;40315;48.620;9.828;2023-04-29T01:05:42;3.45;;;3.15;;
54408;SDS011;40315;48.620;9.828;2023-04-29T01:08:15;3.53;;;3.20;;
54408;SDS011;40315;48.620;9.828;2023-04-29T01:10:53;3.67;;;3.00;;
54408;SDS011;40315;48.620;9.828;2023-04-29T01:13:27;3.95;;;3.00;;
54408;SDS011;40315;48.620;9.828;2023-04-29T01:16:00;3.88;;;2.83;;
54408;SDS011;40315;48.620;9.828;2023-04-29T01:18:29;4.53;;;2.85;;
54408;SDS011;40315;48.620;9.828;2023-04-29T01:21:03;3.15;;;2.78;;
54408;SDS011;40315;48.620;9.828;2023-04-29T01:23:32;2.85;;;2.63;;
54408;SDS011;40315;48.620;9.828;2023-04-29T01:25:59;3.03;;;2.72;;
54408;SDS011;40315;48.620;9.828;2023-04-29T01:28:48;2.90;;;2.60;;
54408;SDS011;40315;48.620;9.828;2023-04-29T01:31:21;3.50;;;3.20;;
54408;SDS011;40315;48.620;9.828;2023-04-29T01:33:58;7.05;;;3.03;;
54408;SDS011;40315;48.620;9.828;2023-04-29T01:36:36;3.35;;;2.80;;
54408;SDS011;40315;48.620;9.828;2023-04-29T01:39:15;3.47;;;3.17;;
54408;SDS011;40315;48.620;9.828;2023-04-29T01:42:01;3.15;;;2.70;;
54408;SDS011;40315;48.620;9.828;2023-04-29T01:44:31;3.17;;;2.88;;
54408;SDS011;40315;48.620;9.828;2023-04-29T06:29:41;8.27;;;7.35;;
54408;SDS011;40315;48.620;9.828;2023-04-29T06:32:08;7.70;;;6.95;;
54408;SDS011;40315;48.620;9.828;2023-04-29T06:34:35;7.90;;;7.05;;
54408;SDS011;40315;48.620;9.828;2023-04-29T06:37:23;8.02;;;6.90;;
54408;SDS011;40315;48.620;9.828;2023-04-29T06:40:25;7.95;;;6.85;;
54408;SDS011;40315;48.620;9.828;2023-04-29T06:43:24;7.95;;;7.15;;
54408;SDS011;40315;48.620;9.828;2023-04-29T06:46:11;7.20;;;6.47;;
54408;SDS011;40315;48.620;9.828;2023-04-29T06:48:59;7.75;;;6.95;;
54408;SDS011;40315;48.620;9.828;2023-04-29T06:51:26;9.07;;;7.82;;
54408;SDS011;40315;48.620;9.828;2023-04-29T06:53:56;8.65;;;7.70;;
54408;SDS011;40315;48.620;9.828;2023-04-29T06:56:23;9.05;;;8.07;;
54408;SDS011;40315;48.620;9.828;2023-04-29T06:58:53;9.10;;;8.20;;
54408;SDS011;40315;48.620;9.828;2023-04-29T07:01:23;11.82;;;8.80;;
54408;SDS011;40315;48.620;9.828;2023-04-29T07:03:53;9.98;;;8.93;;
54408;SDS011;40315;48.620;9.828;2023-04-29T07:06:20;11.63;;;10.18;;
54408;SDS011;40315;48.620;9.828;2023-04-29T07:08:47;10.15;;;9.15;;
54408;SDS011;40315;48.620;9.828;2023-04-29T07:11:16;14.90;;;9.35;;
54408;SDS011;40315;48.620;9.828;2023-04-29T07:13:43;9.23;;;8.20;;
54408;SDS011;40315;48.620;9.828;2023-04-29T07:16:13;10.80;;;7.95;;
54408;SDS011;40315;48.620;9.828;2023-04-29T07:18:45;9.45;;;7.30;;
54408;SDS011;40315;48.620;9.828;2023-04-29T07:21:15;7.15;;;6.55;;
54408;SDS011;40315;48.620;9.828;2023-04-29T07:23:44;9.60;;;6.80;;
54408;SDS011;40315;48.620;9.828;2023-04-29T07:26:12;7.75;;;6.95;;
54408;SDS011;40315;48.620;9.828;2023-04-29T07:28:42;7.00;;;6.32;;
54408;SDS011;40315;48.620;9.828;2023-04-29T07:31:10;8.45;;;7.65;;
54408;SDS011;40315;48.620;9.828;2023-04-29T07:33:40;6.60;;;6.00;;
54408;SDS011;40315;48.620;9.828;2023-04-29T07:36:10;5.63;;;5.13;;
54408;SDS011;40315;48.620;9.828;2023-04-29T07:38:40;6.10;;;5.60;;
54408;SDS011;40315;48.620;9.828;2023-04-29T07:41:07;7.10;;;6.45;;
54408;SDS011;40315;48.620;9.828;2023-04-29T07:43:36;6.07;;;5.57;;
54408;SDS011;40315;48.620;9.828;2023-04-29T07:46:03;5.90;;;5.40;;
54408;SDS011;40315;48.620;9.828;2023-04-29T07:48:35;6.43;;;5.82;;
54408;SDS011;40315;48.620;9.828;2023-04-29T07:51:05;6.88;;;6.28;;
54408;SDS011;40315;48.620;9.828;2023-04-29T07:53:42;9.30;;;6.80;;
54408;SDS011;40315;48.620;9.828;2023-04-29T07:56:09;7.35;;;6.75;;
54408;SDS011;40315;48.620;9.828;2023-04-29T07:58:36;7.10;;;6.40;;
54408;SDS011;40315;48.620;9.828;2023-04-29T08:01:04;6.90;;;6.10;;
54408;SDS011;40315;48.620;9.828;2023-04-29T08:03:32;6.20;;;5.65;;
54408;SDS011;40315;48.620;9.828;2023-04-29T08:06:02;6.90;;;6.13;;
54408;SDS011;40315;48.620;9.828;2023-04-29T08:08:29;7.22;;;5.18;;
54408;SDS011;40315;48.620;9.828;2023-04-29T08:11:00;5.28;;;4.78;;
54408;SDS011;40315;48.620;9.828;2023-04-29T08:13:27;5.75;;;5.13;;
54408;SDS011;40315;48.620;9.828;2023-04-29T08:15:57;6.93;;;5.70;;
54408;SDS011;40315;48.620;9.828;2023-04-29T08:18:24;6.32;;;5.72;;
54408;SDS011;40315;48.620;9.828;2023-04-29T08:20:51;6.63;;;5.78;;
54408;SDS011;40315;48.620;9.828;2023-04-29T08:23:18;5.57;;;5.07;;
54408;SDS011;40315;48.620;9.828;2023-04-29T08:25:45;5.50;;;5.00;;
54408;SDS011;40315;48.620;9.828;2023-04-29T08:28:13;6.55;;;5.93;;
54408;SDS011;40315;48.620;9.828;2023-04-29T08:30:40;5.82;;;4.75;;
54408;SDS011;40315;48.620;9.828;2023-04-29T08:33:07;4.68;;;3.92;;
54408;SDS011;40315;48.620;9.828;2023-04-29T08:35:34;3.92;;;3.53;;
54408;SDS011;40315;48.620;9.828;2023-04-29T08:38:05;3.40;;;3.10;;
54408;SDS011;40315;48.620;9.828;2023-04-29T08:40:35;3.30;;;3.00;;
54408;SDS011;40315;48.620;9.828;2023-04-29T08:43:08;3.33;;;3.03;;
54408;SDS011;40315;48.620;9.828;2023-04-29T08:45:37;3.25;;;2.55;;
54408;SDS011;40315;48.620;9.828;2023-04-29T08:48:05;4.97;;;2.85;;
54408;SDS011;40315;48.620;9.828;2023-04-29T08:50:36;3.50;;;3.20;;
54408;SDS011;40315;48.620;9.828;2023-04-29T08:53:04;4.82;;;2.90;;
54408;SDS011;40315;48.620;9.828;2023-04-29T08:55:33;2.95;;;2.75;;
54408;SDS011;40315;48.620;9.828;2023-04-29T08:58:01;3.25;;;2.92;;
54408;SDS011;40315;48.620;9.828;2023-04-29T09:00:29;2.70;;;2.50;;
54408;SDS011;40315;48.620;9.828;2023-04-29T09:02:58;3.03;;;2.72;;
54408;SDS011;40315;48.620;9.828;2023-04-29T09:05:29;2.60;;;2.40;;
54408;SDS011;40315;48.620;9.828;2023-04-29T09:08:00;3.08;;;2.75;;
54408;SDS011;40315;48.620;9.828;2023-04-29T09:10:28;2.65;;;2.40;;
54408;SDS011;40315;48.620;9.828;2023-04-29T09:12:56;2.50;;;2.30;;
54408;SDS011;40315;48.620;9.828;2023-04-29T09:15:23;2.30;;;2.10;;
54408;SDS011;40315;48.620;9.828;2023-04-29T09:17:50;2.58;;;2.38;;
54408;SDS011;40315;48.620;9.828;2023-04-29T09:20:29;3.88;;;2.30;;
54408;SDS011;40315;48.620;9.828;2023-04-29T09:22:57;2.10;;;1.90;;
54408;SDS011;40315;48.620;9.828;2023-04-29T09:25:25;2.17;;;2.00;;
54408;SDS011;40315;48.620;9.828;2023-04-29T09:27:53;2.33;;;2.00;;
54408;SDS011;40315;48.620;9.828;2023-04-29T09:30:20;1.75;;;1.48;;
54408;SDS011;40315;48.620;9.828;2023-04-29T09:33:03;2.47;;;1.73;;
54408;SDS011;40315;48.620;9.828;2023-04-29T09:35:34;1.52;;;1.35;;
54408;SDS011;40315;48.620;9.828;2023-04-29T09:38:08;1.50;;;1.38;;
54408;SDS011;40315;48.620;9.828;2023-04-29T09:40:36;1.50;;;1.40;;
54408;SDS011;40315;48.620;9.828;2023-04-29T09:43:04;2.45;;;1.50;;
54408;SDS011;40315;48.620;9.828;2023-04-29T09:45:39;1.60;;;1.40;;
54408;SDS011;40315;48.620;9.828;2023-04-29T09:48:08;1.80;;;1.63;;
54408;SDS011;40315;48.620;9.828;2023-04-29T09:50:37;1.90;;;1.50;;
54408;SDS011;40315;48.620;9.828;2023-04-29T09:53:07;1.75;;;1.52;;
54408;SDS011;40315;48.620;9.828;2023-04-29T09:55:35;2.58;;;1.60;;
54408;SDS011;40315;48.620;9.828;2023-04-29T09:58:02;1.70;;;1.40;;
54408;SDS011;40315;48.620;9.828;2023-04-29T10:00:31;2.80;;;1.45;;
54408;SDS011;40315;48.620;9.828;2023-04-29T10:03:00;1.90;;;1.80;;
54408;SDS011;40315;48.620;9.828;2023-04-29T10:05:27;2.22;;;1.40;;
54408;SDS011;40315;48.620;9.828;2023-04-29T10:07:58;2.10;;;1.50;;
54408;SDS011;40315;48.620;9.828;2023-04-29T10:10:26;1.50;;;1.40;;
54408;SDS011;40315;48.620;9.828;2023-04-29T10:12:55;1.60;;;1.50;;
54408;SDS011;40315;48.620;9.828;2023-04-29T10:15:28;1.98;;;1.52;;
54408;SDS011;40315;48.620;9.828;2023-04-29T10:18:02;1.60;;;1.50;;
54408;SDS011;40315;48.620;9.828;2023-04-29T10:20:36;1.38;;;1.30;;
54408;SDS011;40315;48.620;9.828;2023-04-29T10:23:14;1.60;;;1.50;;
54408;SDS011;40315;48.620;9.828;2023-04-29T10:25:43;8.30;;;2.45;;
54408;SDS011;40315;48.620;9.828;2023-04-29T10:28:12;1.88;;;1.20;;
54408;SDS011;40315;48.620;9.828;2023-04-29T10:30:42;2.28;;;1.38;;
54408;SDS011;40315;48.620;9.828;2023-04-29T10:33:10;1.30;;;1.20;;
54408;SDS011;40315;48.620;9.828;2023-04-29T10:35:41;1.60;;;1.35;;
54408;SDS011;40315;48.620;9.828;2023-04-29T10:38:10;1.60;;;1.50;;
54408;SDS011;40315;48.620;9.828;2023-04-29T10:40:48;1.45;;;1.35;;
54408;SDS011;40315;48.620;9.828;2023-04-29T10:43:21;1.85;;;1.65;;
54408;SDS011;40315;48.620;9.828;2023-04-29T10:45:49;1.83;;;1.60;;
54408;SDS011;40315;48.620;9.828;2023-04-29T10:48:16;1.58;;;1.48;;
54408;SDS011;40315;48.620;9.828;2023-04-29T10:51:01;1.70;;;1.60;;
54408;SDS011;40315;48.620;9.828;2023-04-29T10:53:31;1.65;;;1.55;;
54408;SDS011;40315;48.620;9.828;2023-04-29T10:56:04;1.92;;;1.45;;
54408;SDS011;40315;48.620;9.828;2023-04-29T10:58:36;1.63;;;1.30;;
54408;SDS011;40315;48.620;9.828;2023-04-29T11:01:04;2.17;;;1.60;;
54408;SDS011;40315;48.620;9.828;2023-04-29T11:03:50;1.67;;;1.20;;
54408;SDS011;40315;48.620;9.828;2023-04-29T11:06:22;1.20;;;1.10;;
54408;SDS011;40315;48.620;9.828;2023-04-29T11:09:02;1.42;;;1.20;;
54408;SDS011;40315;48.620;9.828;2023-04-29T11:11:40;2.30;;;1.02;;
54408;SDS011;40315;48.620;9.828;2023-04-29T11:14:12;1.45;;;1.10;;
54408;SDS011;40315;48.620;9.828;2023-04-29T11:16:46;1.27;;;1.17;;
54408;SDS011;40315;48.620;9.828;2023-04-29T11:19:15;3.03;;;1.40;;
54408;SDS011;40315;48.620;9.828;2023-04-29T11:21:43;1.20;;;1.10;;
54408;SDS011;40315;48.620;9.828;2023-04-29T11:24:13;1.90;;;1.20;;
54408;SDS011;40315;48.620;9.828;2023-04-29T11:26:41;1.35;;;1.20;;
54408;SDS011;40315;48.620;9.828;2023-04-29T11:29:10;1.42;;;1.23;;
54408;SDS011;40315;48.620;9.828;2023-04-29T11:31:40;1.40;;;1.15;;
54408;SDS011;40315;48.620;9.828;2023-04-29T11:34:07;1.30;;;1.20;;
54408;SDS011;40315;48.620;9.828;2023-04-29T11:36:34;2.22;;;1.20;;
54408;SDS011;40315;48.620;9.828;2023-04-29T11:39:02;1.90;;;1.42;;
54408;SDS011;40315;48.620;9.828;2023-04-29T11:41:31;1.80;;;1.70;;
54408;SDS011;40315;48.620;9.828;2023-04-29T11:43:59;2.20;;;1.50;;
54408;SDS011;40315;48.620;9.828;2023-04-29T11:46:31;3.05;;;1.50;;
54408;SDS011;40315;48.620;9.828;2023-04-29T11:49:01;1.80;;;1.70;;
54408;SDS011;40315;48.620;9.828;2023-04-29T11:51:28;2.58;;;1.60;;
54408;SDS011;40315;48.620;9.828;2023-04-29T11:53:56;1.98;;;1.88;;
54408;SDS011;40315;48.620;9.828;2023-04-29T11:56:23;2.10;;;1.90;;
54408;SDS011;40315;48.620;9.828;2023-04-29T11:58:56;2.50;;;2.30;;
54408;SDS011;40315;48.620;9.828;2023-04-29T12:01:25;2.55;;;2.15;;
54408;SDS011;40315;48.620;9.828;2023-04-29T12:03:56;2.72;;;2.08;;
54408;SDS011;40315;48.620;9.828;2023-04-29T12:06:26;1.90;;;1.80;;
54408;SDS011;40315;48.620;9.828;2023-04-29T12:08:57;2.15;;;1.90;;
54408;SDS011;40315;48.620;9.828;2023-04-29T12:11:25;16.42;;;4.95;;
54408;SDS011;40315;48.620;9.828;2023-04-29T12:13:53;2.47;;;2.10;;
54408;SDS011;40315;48.620;9.828;2023-04-29T12:16:21;3.38;;;2.22;;
54408;SDS011;40315;48.620;9.828;2023-04-29T12:18:49;2.45;;;2.25;;
54408;SDS011;40315;48.620;9.828;2023-04-29T12:21:18;2.60;;;2.40;;
54408;SDS011;40315;48.620;9.828;2023-04-29T12:23:45;4.80;;;2.58;;
54408;SDS011;40315;48.620;9.828;2023-04-29T12:26:12;2.90;;;1.75;;
54408;SDS011;40315;48.620;9.828;2023-04-29T12:28:40;2.45;;;2.20;;
54408;SDS011;40315;48.620;9.828;2023-04-29T12:31:10;1.92;;;1.75;;
54408;SDS011;40315;48.620;9.828;2023-04-29T12:33:42;1.65;;;1.45;;
54408;SDS011;40315;48.620;9.828;2023-04-29T12:36:14;2.72;;;2.30;;
54408;SDS011;40315;48.620;9.828;2023-04-29T12:38:43;2.30;;;2.10;;
54408;SDS011;40315;48.620;9.828;2023-04-29T12:41:11;1.98;;;1.88;;
54408;SDS011;40315;48.620;9.828;2023-04-29T12:43:42;2.08;;;1.88;;
54408;SDS011;40315;48.620;9.828;2023-04-29T12:46:09;2.17;;;1.73;;
54408;SDS011;40315;48.620;9.828;2023-04-29T12:48:37;2.00;;;1.90;;
54408;SDS011;40315;48.620;9.828;2023-04-29T12:51:09;1.98;;;1.80;;
54408;SDS011;40315;48.620;9.828;2023-04-29T12:53:39;2.28;;;2.08;;
54408;SDS011;40315;48.620;9.828;2023-04-29T12:56:06;2.00;;;1.90;;
54408;SDS011;40315;48.620;9.828;2023-04-29T12:58:33;2.08;;;1.88;;
54408;SDS011;40315;48.620;9.828;2023-04-29T13:01:01;2.22;;;2.03;;
54408;SDS011;40315;48.620;9.828;2023-04-29T13:03:30;2.67;;;1.95;;
54408;SDS011;40315;48.620;9.828;2023-04-29T13:05:58;3.15;;;2.00;;
54408;SDS011;40315;48.620;9.828;2023-04-29T13:08:26;2.78;;;2.38;;
54408;SDS011;40315;48.620;9.828;2023-04-29T13:10:54;2.40;;;2.20;;
54408;SDS011;40315;48.620;9.828;2023-04-29T13:13:21;4.90;;;2.88;;
54408;SDS011;40315;48.620;9.828;2023-04-29T13:15:48;1.85;;;1.63;;
54408;SDS011;40315;48.620;9.828;2023-04-29T13:18:15;1.80;;;1.70;;
54408;SDS011;40315;48.620;9.828;2023-04-29T13:20:42;1.90;;;1.80;;
54408;SDS011;40315;48.620;9.828;2023-04-29T13:23:09;2.30;;;2.10;;
54408;SDS011;40315;48.620;9.828;2023-04-29T13:25:38;2.38;;;2.17;;
54408;SDS011;40315;48.620;9.828;2023-04-29T13:28:05;2.80;;;2.22;;
54408;SDS011;40315;48.620;9.828;2023-04-29T13:30:32;2.38;;;2.10;;
54408;SDS011;40315;48.620;9.828;2023-04-29T13:32:59;2.30;;;2.10;;
54408;SDS011;40315;48.620;9.828;2023-04-29T13:35:27;2.10;;;2.00;;
54408;SDS011;40315;48.620;9.828;2023-04-29T13:37:54;5.00;;;2.20;;
54408;SDS011;40315;48.620;9.828;2023-04-29T13:40:23;2.10;;;1.90;;
54408;SDS011;40315;48.620;9.828;2023-04-29T13:42:53;2.65;;;1.85;;
54408;SDS011;40315;48.620;9.828;2023-04-29T13:45:20;1.92;;;1.83;;
54408;SDS011;40315;48.620;9.828;2023-04-29T13:47:47;3.65;;;2.10;;
54408;SDS011;40315;48.620;9.828;2023-04-29T13:50:14;2.40;;;2.20;;
54408;SDS011;40315;48.620;9.828;2023-04-29T13:52:41;2.28;;;2.08;;
54408;SDS011;40315;48.620;9.828;2023-04-29T13:55:09;3.22;;;2.05;;
54408;SDS011;40315;48.620;9.828;2023-04-29T13:57:36;1.98;;;1.88;;
54408;SDS011;40315;48.620;9.828;2023-04-29T14:00:06;2.35;;;1.90;;
54408;SDS011;40315;48.620;9.828;2023-04-29T14:02:36;3.45;;;1.85;;
54408;SDS011;40315;48.620;9.828;2023-04-29T14:05:04;2.05;;;1.92;;
54408;SDS011;40315;48.620;9.828;2023-04-29T14:07:31;2.08;;;1.98;;
54408;SDS011;40315;48.620;9.828;2023-04-29T14:09:59;1.60;;;1.50;;
54408;SDS011;40315;48.620;9.828;2023-04-29T14:12:26;2.17;;;1.95;;
54408;SDS011;40315;48.620;9.828;2023-04-29T14:14:53;2.53;;;1.90;;
54408;SDS011;40315;48.620;9.828;2023-04-29T14:17:21;3.20;;;2.10;;
54408;SDS011;40315;48.620;9.828;2023-04-29T14:19:48;2.25;;;1.90;;
54408;SDS011;40315;48.620;9.828;2023-04-29T14:22:17;2.30;;;2.10;;
54408;SDS011;40315;48.620;9.828;2023-04-29T14:24:45;2.53;;;2.30;;
54408;SDS011;40315;48.620;9.828;2023-04-29T14:27:12;2.50;;;2.30;;
54408;SDS011;40315;48.620;9.828;2023-04-29T14:29:39;2.30;;;2.10;;
54408;SDS011;40315;48.620;9.828;2023-04-29T14:32:07;2.53;;;2.08;;
54408;SDS011;40315;48.620;9.828;2023-04-29T14:34:37;1.88;;;1.77;;
54408;SDS011;40315;48.620;9.828;2023-04-29T14:37:07;2.28;;;2.10;;
54408;SDS011;40315;48.620;9.828;2023-04-29T14:39:34;2.55;;;2.10;;
54408;SDS011;40315;48.620;9.828;2023-04-29T14:42:02;2.45;;;2.15;;
54408;SDS011;40315;48.620;9.828;2023-04-29T14:44:29;3.17;;;2.47;;
54408;SDS011;40315;48.620;9.828;2023-04-29T14:46:56;3.78;;;2.05;;
54408;SDS011;40315;48.620;9.828;2023-04-29T14:49:23;3.00;;;2.10;;
54408;SDS011;40315;48.620;9.828;2023-04-29T14:51:52;2.60;;;2.05;;
54408;SDS011;40315;48.620;9.828;2023-04-29T14:54:20;2.17;;;1.95;;
54408;SDS011;40315;48.620;9.828;2023-04-29T14:56:47;3.63;;;2.05;;
54408;SDS011;40315;48.620;9.828;2023-04-29T14:59:14;3.22;;;2.10;;
54408;SDS011;40315;48.620;9.828;2023-04-29T15:01:41;2.63;;;2.20;;
54408;SDS011;40315;48.620;9.828;2023-04-29T15:04:08;2.10;;;1.98;;
54408;SDS011;40315;48.620;9.828;2023-04-29T15:06:36;4.20;;;3.10;;
54408;SDS011;40315;48.620;9.828;2023-04-29T15:09:06;4.35;;;3.00;;
54408;SDS011;40315;48.620;9.828;2023-04-29T15:11:33;3.65;;;3.35;;
54408;SDS011;40315;48.620;9.828;2023-04-29T15:14:01;3.90;;;3.58;;
54408;SDS011;40315;48.620;9.828;2023-04-29T15:16:28;4.00;;;3.70;;
54408;SDS011;40315;48.620;9.828;2023-04-29T15:18:55;4.03;;;3.42;;
54408;SDS011;40315;48.620;9.828;2023-04-29T15:21:23;3.65;;;3.35;;
54408;SDS011;40315;48.620;9.828;2023-04-29T15:23:51;3.53;;;3.22;;
54408;SDS011;40315;48.620;9.828;2023-04-29T15:26:20;4.05;;;3.65;;
54408;SDS011;40315;48.620;9.828;2023-04-29T15:28:47;4.07;;;3.38;;
54408;SDS011;40315;48.620;9.828;2023-04-29T15:31:14;4.35;;;3.95;;
54408;SDS011;40315;48.620;9.828;2023-04-29T15:33:41;4.35;;;3.95;;
54408;SDS011;40315;48.620;9.828;2023-04-29T15:36:09;4.13;;;3.72;;
54408;SDS011;40315;48.620;9.828;2023-04-29T15:38:36;4.90;;;3.65;;
54408;SDS011;40315;48.620;9.828;2023-04-29T15:41:03;3.78;;;3.47;;
54408;SDS011;40315;48.620;9.828;2023-04-29T15:43:34;3.78;;;3.47;;
54408;SDS011;40315;48.620;9.828;2023-04-29T15:46:03;4.35;;;3.65;;
54408;SDS011;40315;48.620;9.828;2023-04-29T15:48:33;4.55;;;4.03;;
54408;SDS011;40315;48.620;9.828;2023-04-29T15:51:02;4.22;;;3.83;;
54408;SDS011;40315;48.620;9.828;2023-04-29T15:53:29;5.00;;;4.28;;
54408;SDS011;40315;48.620;9.828;2023-04-29T15:55:57;6.63;;;4.20;;
54408;SDS011;40315;48.620;9.828;2023-04-29T15:58:25;4.82;;;4.32;;
54408;SDS011;40315;48.620;9.828;2023-04-29T16:00:53;6.45;;;5.07;;
54408;SDS011;40315;48.620;9.828;2023-04-29T16:03:20;5.25;;;4.75;;
54408;SDS011;40315;48.620;9.828;2023-04-29T16:05:48;6.15;;;5.40;;
54408;SDS011;40315;48.620;9.828;2023-04-29T16:08:15;5.03;;;4.53;;
54408;SDS011;40315;48.620;9.828;2023-04-29T16:10:44;6.15;;;4.78;;
54408;SDS011;40315;48.620;9.828;2023-04-29T16:13:13;4.97;;;4.07;;
54408;SDS011;40315;48.620;9.828;2023-04-29T16:15:41;4.80;;;4.30;;
54408;SDS011;40315;48.620;9.828;2023-04-29T16:18:09;5.00;;;4.40;;
54408;SDS011;40315;48.620;9.828;2023-04-29T16:20:38;7.32;;;5.00;;
54408;SDS011;40315;48.620;9.828;2023-04-29T16:23:05;4.68;;;4.25;;
54408;SDS011;40315;48.620;9.828;2023-04-29T16:25:32;6.25;;;4.40;;
54408;SDS011;40315;48.620;9.828;2023-04-29T16:27:59;5.45;;;4.93;;
54408;SDS011;40315;48.620;9.828;2023-04-29T16:30:26;6.65;;;5.10;;
54408;SDS011;40315;48.620;9.828;2023-04-29T16:32:54;5.53;;;4.90;;
54408;SDS011;40315;48.620;9.828;2023-04-29T16:35:22;6.97;;;4.80;;
54408;SDS011;40315;48.620;9.828;2023-04-29T16:37:53;6.60;;;5.18;;
54408;SDS011;40315;48.620;9.828;2023-04-29T16:40:20;6.65;;;5.05;;
54408;SDS011;40315;48.620;9.828;2023-04-29T16:42:48;6.30;;;5.70;;
54408;SDS011;40315;48.620;9.828;2023-04-29T16:45:17;6.90;;;5.47;;
54408;SDS011;40315;48.620;9.828;2023-04-29T16:47:44;6.30;;;5.70;;
54408;SDS011;40315;48.620;9.828;2023-04-29T16:50:13;5.90;;;5.30;;
54408;SDS011;40315;48.620;9.828;2023-04-29T16:52:43;5.97;;;5.38;;
54408;SDS011;40315;48.620;9.828;2023-04-29T16:55:10;5.95;;;5.35;;
54408;SDS011;40315;48.620;9.828;2023-04-29T16:57:38;6.63;;;5.40;;
54408;SDS011;40315;48.620;9.828;2023-04-29T17:00:09;5.18;;;4.68;;
54408;SDS011;40315;48.620;9.828;2023-04-29T17:02:36;5.70;;;5.10;;
54408;SDS011;40315;48.620;9.828;2023-04-29T17:05:07;5.68;;;5.18;;
54408;SDS011;40315;48.620;9.828;2023-04-29T17:07:35;6.28;;;5.10;;
54408;SDS011;40315;48.620;9.828;2023-04-29T17:10:04;6.15;;;5.55;;
54408;SDS011;40315;48.620;9.828;2023-04-29T17:12:32;5.72;;;5.13;;
54408;SDS011;40315;48.620;9.828;2023-04-29T17:14:59;6.85;;;4.78;;
54408;SDS011;40315;48.620;9.828;2023-04-29T17:17:26;6.55;;;4.82;;
54408;SDS011;40315;48.620;9.828;2023-04-29T17:19:53;9.38;;;6.97;;
54408;SDS011;40315;48.620;9.828;2023-04-29T17:22:20;5.20;;;4.70;;
54408;SDS011;40315;48.620;9.828;2023-04-29T17:24:48;13.02;;;9.75;;
54408;SDS011;40315;48.620;9.828;2023-04-29T17:27:17;5.57;;;4.65;;
54408;SDS011;40315;48.620;9.828;2023-04-29T17:29:44;6.28;;;5.05;;
54408;SDS011;40315;48.620;9.828;2023-04-29T17:32:11;6.60;;;5.43;;
54408;SDS011;40315;48.620;9.828;2023-04-29T17:34:41;7.00;;;5.50;;
54408;SDS011;40315;48.620;9.828;2023-04-29T17:37:09;6.50;;;5.03;;
54408;SDS011;40315;48.620;9.828;2023-04-29T17:39:36;7.65;;;5.90;;
54408;SDS011;40315;48.620;9.828;2023-04-29T17:42:03;6.65;;;5.50;;
54408;SDS011;40315;48.620;9.828;2023-04-29T17:44:32;5.65;;;4.60;;
54408;SDS011;40315;48.620;9.828;2023-04-29T17:47:01;6.18;;;4.78;;
54408;SDS011;40315;48.620;9.828;2023-04-29T17:49:30;7.28;;;5.10;;
54408;SDS011;40315;48.620;9.828;2023-04-29T17:51:57;7.05;;;5.05;;
54408;SDS011;40315;48.620;9.828;2023-04-29T17:54:29;8.10;;;5.43;;
54408;SDS011;40315;48.620;9.828;2023-04-29T17:56:56;6.10;;;5.25;;
54408;SDS011;40315;48.620;9.828;2023-04-29T17:59:26;7.68;;;5.25;;
54408;SDS011;40315;48.620;9.828;2023-04-29T18:01:56;5.88;;;5.03;;
54408;SDS011;40315;48.620;9.828;2023-04-29T18:04:23;6.95;;;5.35;;
54408;SDS011;40315;48.620;9.828;2023-04-29T18:06:50;7.47;;;4.60;;
54408;SDS011;40315;48.620;9.828;2023-04-29T18:09:17;6.10;;;4.93;;
54408;SDS011;40315;48.620;9.828;2023-04-29T18:11:44;7.28;;;5.80;;
54408;SDS011;40315;48.620;9.828;2023-04-29T18:14:11;6.70;;;5.65;;
54408;SDS011;40315;48.620;9.828;2023-04-29T18:16:38;5.47;;;4.70;;
54408;SDS011;40315;48.620;9.828;2023-04-29T18:19:07;7.15;;;4.80;;
54408;SDS011;40315;48.620;9.828;2023-04-29T18:21:34;6.30;;;5.35;;
54408;SDS011;40315;48.620;9.828;2023-04-29T18:24:04;6.70;;;5.35;;
54408;SDS011;40315;48.620;9.828;2023-04-29T18:26:32;7.82;;;5.50;;
54408;SDS011;40315;48.620;9.828;2023-04-29T18:28:59;6.97;;;4.70;;
54408;SDS011;40315;48.620;9.828;2023-04-29T18:31:28;6.43;;;4.60;;
54408;SDS011;40315;48.620;9.828;2023-04-29T18:33:55;6.22;;;5.03;;
54408;SDS011;40315;48.620;9.828;2023-04-29T18:36:24;6.65;;;4.60;;
54408;SDS011;40315;48.620;9.828;2023-04-29T18:38:54;7.07;;;5.40;;
54408;SDS011;40315;48.620;9.828;2023-04-29T18:41:21;7.20;;;4.80;;
54408;SDS011;40315;48.620;9.828;2023-04-29T18:43:48;6.45;;;4.80;;
54408;SDS011;40315;48.620;9.828;2023-04-29T18:46:16;6.47;;;5.25;;
54408;SDS011;40315;48.620;9.828;2023-04-29T18:48:43;6.57;;;4.70;;
54408;SDS011;40315;48.620;9.828;2023-04-29T18:51:12;5.90;;;4.68;;
54408;SDS011;40315;48.620;9.828;2023-04-29T18:53:43;5.75;;;4.95;;
54408;SDS011;40315;48.620;9.828;2023-04-29T18:56:10;5.10;;;4.40;;
54408;SDS011;40315;48.620;9.828;2023-04-29T18:58:37;5.93;;;4.85;;
54408;SDS011;40315;48.620;9.828;2023-04-29T19:01:05;7.18;;;4.60;;
54408;SDS011;40315;48.620;9.828;2023-04-29T19:03:34;7.43;;;4.57;;
54408;SDS011;40315;48.620;9.828;2023-04-29T19:06:03;7.55;;;5.07;;
54408;SDS011;40315;48.620;9.828;2023-04-29T19:08:31;6.13;;;4.68;;
54408;SDS011;40315;48.620;9.828;2023-04-29T19:10:59;4.80;;;4.30;;
54408;SDS011;40315;48.620;9.828;2023-04-29T19:13:28;4.72;;;4.15;;
54408;SDS011;40315;48.620;9.828;2023-04-29T19:15:55;6.72;;;4.45;;
54408;SDS011;40315;48.620;9.828;2023-04-29T19:18:22;6.22;;;4.72;;
54408;SDS011;40315;48.620;9.828;2023-04-29T19:20:52;6.57;;;4.50;;
54408;SDS011;40315;48.620;9.828;2023-04-29T19:23:20;5.28;;;4.47;;
54408;SDS011;40315;48.620;9.828;2023-04-29T19:25:47;5.40;;;4.78;;
54408;SDS011;40315;48.620;9.828;2023-04-29T19:28:16;6.28;;;5.40;;
54408;SDS011;40315;48.620;9.828;2023-04-29T19:30:43;8.50;;;5.85;;
54408;SDS011;40315;48.620;9.828;2023-04-29T19:33:10;8.45;;;6.32;;
54408;SDS011;40315;48.620;9.828;2023-04-29T19:35:37;6.13;;;5.45;;
54408;SDS011;40315;48.620;9.828;2023-04-29T19:38:07;6.22;;;5.10;;
54408;SDS011;40315;48.620;9.828;2023-04-29T19:40:35;5.43;;;4.63;;
54408;SDS011;40315;48.620;9.828;2023-04-29T19:43:02;5.05;;;4.45;;
54408;SDS011;40315;48.620;9.828;2023-04-29T19:45:30;5.50;;;4.25;;